Terminal Aerodrome Forecast
Issued by NWS Sioux Falls, SD

Home | Current Version | Previous Version | Graphics & Text | Print | Product List | Glossary On
Versions: 1 2 3 4 5 6 7 8 9 10 11 12 13 14 15 16 17 18 19 20
000
FTUS43 KFSD 250458 AAE
TAFHON
TAF AMD
KHON 250458Z 2505/2524 35018G25KT 3SM -SN OVC007
     FM250800 36018G25KT 6SM -SN OVC009
     FM251000 35014G20KT P6SM OVC015
     FM251900 32008KT P6SM BKN030
     FM252200 VRB03KT P6SM SCT050 BKN200=

USA.gov is the U.S. government's official web portal to all federal, state and local government web resources and services.